Terminal Aerodrome Forecast
Issued by NWS

Home | Current Version | Previous Version | Text Only | Print | Product List | Glossary On
Versions: 1 2 3 4 5 6 7 8 9 10 11 12 13 14 15 16 17 18 19 20 21 22 23 24 25 26 27 28 29 30 31 32
000
FTPQ31 PGUM 290642 AAD
TAFTKK
TAF AMD
PTKK 290642Z 2907/3006 17025G40KT 5SM SHRA VCTS SCT012CB OVC030
      TEMPO 2907/2911 2SM +SHRA SCT007 OVC020
     FM291200 15018G30KT 6SM SHRA SCT012 BKN030 OVC090
     FM300100 12015G25KT P6SM VCSH SCT012 SCT030 BKN120=

USA.gov is the U.S. government's official web portal to all federal, state and local government web resources and services.